createdAt,value
2018-06-27T00:02:07.799Z,13.90
2018-06-27T00:04:37.384Z,13.17
2018-06-27T00:07:07.125Z,12.90
2018-06-27T00:09:37.677Z,12.27
2018-06-27T00:12:07.484Z,15.47
2018-06-27T00:14:38.136Z,14.77
2018-06-27T00:17:07.791Z,15.10
2018-06-27T00:19:38.149Z,15.83
2018-06-27T00:22:08.926Z,15.83
2018-06-27T00:24:38.996Z,18.93
2018-06-27T00:27:08.613Z,17.70
2018-06-27T00:29:38.207Z,18.80
2018-06-27T00:32:07.771Z,15.53
2018-06-27T00:34:37.809Z,17.70
2018-06-27T00:37:07.374Z,16.97
2018-06-27T00:39:37.000Z,14.60
2018-06-27T00:42:06.645Z,12.80
2018-06-27T00:44:36.515Z,14.57
2018-06-27T00:47:07.203Z,10.53
2018-06-27T00:49:37.128Z,12.10
2018-06-27T00:52:06.854Z,11.00
2018-06-27T00:54:36.426Z,10.00
2018-06-27T00:57:06.057Z,11.30
2018-06-27T00:59:35.326Z,11.03
2018-06-27T01:02:05.094Z,11.10
2018-06-27T01:04:35.922Z,10.90
2018-06-27T01:07:05.891Z,13.10
2018-06-27T01:09:36.044Z,12.10
2018-06-27T01:12:05.626Z,12.90
2018-06-27T01:14:35.160Z,13.33
2018-06-27T01:17:04.695Z,13.63
2018-06-27T01:19:34.291Z,14.63
2018-06-27T01:22:03.792Z,17.77
2018-06-27T01:24:33.264Z,16.80
2018-06-27T01:27:02.848Z,16.10
2018-06-27T01:29:33.956Z,15.00
2018-06-27T01:32:03.692Z,15.30
2018-06-27T01:34:39.390Z,16.10
2018-06-27T01:37:09.290Z,15.13
2018-06-27T01:39:38.933Z,16.07
2018-06-27T01:42:08.696Z,15.07
2018-06-27T01:44:38.326Z,15.33
2018-06-27T01:47:08.136Z,13.90
2018-06-27T01:49:37.615Z,13.33
2018-06-27T01:52:07.315Z,12.87
2018-06-27T01:54:36.908Z,14.17
2018-06-27T01:57:06.888Z,14.87
2018-06-27T01:59:36.457Z,15.27
2018-06-27T02:02:06.631Z,17.00
2018-06-27T02:04:37.849Z,15.73
2018-06-27T02:07:08.408Z,12.50
2018-06-27T02:09:38.378Z,12.63
2018-06-27T02:12:08.520Z,13.37
2018-06-27T02:14:38.346Z,13.17
2018-06-27T02:17:08.962Z,13.73
2018-06-27T02:19:40.032Z,10.20
2018-06-27T02:22:09.647Z,10.60
2018-06-27T02:24:39.351Z,10.73
2018-06-27T02:27:09.288Z,11.93
2018-06-27T02:29:39.456Z,11.23
2018-06-27T02:32:09.699Z,11.67
2018-06-27T02:34:39.306Z,10.90
2018-06-27T02:37:09.076Z,11.73
2018-06-27T02:39:38.702Z,10.60
2018-06-27T02:42:08.165Z,11.17
2018-06-27T02:44:37.811Z,11.00
2018-06-27T02:47:07.671Z,10.63
2018-06-27T02:49:37.193Z,10.60
2018-06-27T02:52:06.674Z,10.10
2018-06-27T02:54:36.322Z,10.60
2018-06-27T02:57:06.045Z,11.60
2018-06-27T02:59:35.652Z,10.60
2018-06-27T03:02:05.294Z,11.60
2018-06-27T03:04:34.948Z,10.10
2018-06-27T03:07:04.506Z,10.10
2018-06-27T03:09:34.049Z,10.97
2018-06-27T03:12:03.786Z,10.70
2018-06-27T03:14:33.424Z,10.30
2018-06-27T03:17:03.037Z,10.40
2018-06-27T03:19:33.916Z,10.87
2018-06-27T03:22:04.085Z,10.20
2018-06-27T03:24:33.661Z,10.80
2018-06-27T03:27:04.493Z,9.70
2018-06-27T03:29:34.172Z,10.23
2018-06-27T03:32:03.779Z,11.67
2018-06-27T03:34:34.347Z,9.53
2018-06-27T03:37:03.940Z,9.67
2018-06-27T03:39:33.495Z,10.17
2018-06-27T03:42:03.651Z,10.10
2018-06-27T03:44:33.757Z,9.13
2018-06-27T03:47:03.826Z,8.87
2018-06-27T03:49:33.598Z,7.97
2018-06-27T03:52:03.408Z,9.17
2018-06-27T03:54:33.089Z,7.90
2018-06-27T03:57:02.751Z,9.80
2018-06-27T03:59:32.381Z,11.57
2018-06-27T04:02:02.048Z,9.83
2018-06-27T04:04:33.027Z,8.33
2018-06-27T04:07:02.565Z,10.23
2018-06-27T04:09:32.680Z,9.63
2018-06-27T04:12:02.224Z,9.40
2018-06-27T04:14:32.536Z,8.93
2018-06-27T04:17:02.931Z,8.37
2018-06-27T04:19:33.361Z,10.27
2018-06-27T04:22:03.499Z,9.07
2018-06-27T04:24:33.053Z,10.67
2018-06-27T04:27:02.591Z,10.60
2018-06-27T04:29:32.435Z,9.70
2018-06-27T04:32:01.683Z,10.40
2018-06-27T04:34:31.170Z,10.10
2018-06-27T04:37:03.565Z,8.97
2018-06-27T04:39:33.970Z,8.87
2018-06-27T04:42:03.441Z,9.40
2018-06-27T04:44:34.012Z,11.87
2018-06-27T04:47:03.553Z,9.23
2018-06-27T04:49:33.152Z,10.10
2018-06-27T04:52:03.318Z,11.80
2018-06-27T04:54:32.894Z,11.33
2018-06-27T04:57:02.982Z,9.50
2018-06-27T04:59:33.150Z,8.67
2018-06-27T05:02:03.366Z,8.53
2018-06-27T05:04:32.993Z,8.13
2018-06-27T05:07:02.491Z,8.97
2018-06-27T05:09:32.047Z,8.33
2018-06-27T05:12:03.455Z,9.43
2018-06-27T05:14:35.305Z,9.63
2018-06-27T05:17:04.908Z,8.37
2018-06-27T05:19:39.056Z,8.60
2018-06-27T05:22:09.534Z,7.97
2018-06-27T05:24:39.034Z,8.50
2018-06-27T05:27:08.757Z,7.90
2018-06-27T05:29:38.329Z,8.40
2018-06-27T05:32:07.821Z,8.60
2018-06-27T05:34:37.348Z,8.73
2018-06-27T05:37:07.145Z,8.63
2018-06-27T05:39:36.622Z,8.00
2018-06-27T05:42:06.174Z,8.50
2018-06-27T05:44:35.628Z,7.73
2018-06-27T05:47:05.134Z,8.60
2018-06-27T05:49:34.697Z,8.67
2018-06-27T05:52:04.198Z,9.13
2018-06-27T05:54:33.823Z,8.27
2018-06-27T05:57:03.746Z,7.97
2018-06-27T05:59:33.286Z,8.60
2018-06-27T06:02:02.854Z,7.73
2018-06-27T06:04:32.359Z,7.43
2018-06-27T06:07:01.813Z,8.33
2018-06-27T06:09:31.350Z,7.43
2018-06-27T06:12:00.829Z,7.70
2018-06-27T06:14:30.422Z,8.33
2018-06-27T06:16:59.941Z,8.80
2018-06-27T06:19:29.432Z,9.60
2018-06-27T06:21:59.147Z,9.90
2018-06-27T06:24:28.722Z,8.77
2018-06-27T06:26:58.502Z,9.40
2018-06-27T06:29:28.061Z,11.20
2018-06-27T06:32:04.475Z,8.97
2018-06-27T06:34:33.933Z,7.80
2018-06-27T06:37:03.380Z,8.33
2018-06-27T06:39:33.219Z,9.20
2018-06-27T06:42:03.483Z,8.90
2018-06-27T06:44:33.341Z,8.57
2018-06-27T06:47:03.215Z,8.47
2018-06-27T06:49:32.725Z,8.60
2018-06-27T06:52:02.212Z,7.47
2018-06-27T06:54:31.698Z,8.77
2018-06-27T06:57:01.174Z,9.20
2018-06-27T06:59:30.720Z,10.27
2018-06-27T07:02:00.270Z,7.73
2018-06-27T07:04:29.750Z,8.27
2018-06-27T07:06:59.302Z,7.83
2018-06-27T07:09:28.823Z,7.50
2018-06-27T07:11:58.335Z,7.27
2018-06-27T07:14:27.920Z,8.07
2018-06-27T07:16:57.398Z,8.20
2018-06-27T07:19:26.962Z,7.73
2018-06-27T07:21:56.510Z,9.27
2018-06-27T07:24:26.036Z,9.10
2018-06-27T07:26:55.527Z,9.40
2018-06-27T07:29:25.024Z,9.00
2018-06-27T07:31:54.521Z,9.10
2018-06-27T07:34:24.106Z,10.10
2018-06-27T07:36:53.741Z,9.77
2018-06-27T07:39:23.209Z,9.57
2018-06-27T07:41:52.752Z,9.73
2018-06-27T07:44:22.371Z,8.80
2018-06-27T07:46:51.950Z,8.63
2018-06-27T07:49:21.466Z,8.73
2018-06-27T07:51:51.180Z,8.90
2018-06-27T07:54:20.702Z,9.70
2018-06-27T07:56:50.216Z,9.97
2018-06-27T07:59:19.752Z,10.23
2018-06-27T08:01:49.318Z,11.17
2018-06-27T08:04:19.086Z,9.53
2018-06-27T08:06:48.535Z,9.93
2018-06-27T08:09:18.014Z,9.57
2018-06-27T08:11:47.705Z,9.60
2018-06-27T08:14:17.223Z,10.60
2018-06-27T08:16:46.726Z,8.70
2018-06-27T08:19:16.384Z,9.80
2018-06-27T08:21:45.978Z,11.70
2018-06-27T08:24:15.692Z,9.27
2018-06-27T08:26:45.440Z,9.03
2018-06-27T08:29:15.077Z,7.83
2018-06-27T08:31:44.763Z,9.50
2018-06-27T08:34:14.402Z,10.40
2018-06-27T08:36:44.116Z,9.80
2018-06-27T08:39:13.618Z,9.70
2018-06-27T08:41:43.142Z,9.37
2018-06-27T08:44:12.656Z,9.27
2018-06-27T08:46:42.131Z,9.00
2018-06-27T08:49:11.702Z,8.90
2018-06-27T08:51:41.210Z,9.63
2018-06-27T08:54:10.716Z,8.40
2018-06-27T08:56:40.214Z,10.23
2018-06-27T08:59:09.744Z,12.47
2018-06-27T09:01:39.282Z,9.90
2018-06-27T09:04:08.780Z,9.60
2018-06-27T09:06:38.304Z,9.30
2018-06-27T09:09:10.899Z,9.60
2018-06-27T09:11:40.688Z,9.17
2018-06-27T09:14:10.178Z,9.17
2018-06-27T09:16:39.771Z,10.70
2018-06-27T09:19:09.427Z,10.90
2018-06-27T09:21:38.986Z,9.53
2018-06-27T09:24:08.572Z,8.60
2018-06-27T09:26:38.340Z,8.43
2018-06-27T09:29:08.767Z,10.50
2018-06-27T09:31:38.320Z,11.90
2018-06-27T09:34:07.971Z,10.00
2018-06-27T09:36:37.573Z,9.63
2018-06-27T09:39:10.747Z,10.00
2018-06-27T09:41:40.453Z,49.27
2018-06-27T09:44:10.134Z,11.10
2018-06-27T09:46:39.835Z,9.60
2018-06-27T09:49:09.456Z,19.53
2018-06-27T09:51:39.170Z,9.10
2018-06-27T09:54:08.859Z,8.83
2018-06-27T09:56:38.295Z,8.90
2018-06-27T09:59:07.848Z,10.37
2018-06-27T10:01:40.482Z,7.90
2018-06-27T10:04:10.217Z,10.00
2018-06-27T10:06:39.697Z,9.53
2018-06-27T10:09:10.650Z,9.57
2018-06-27T10:11:40.377Z,9.37
2018-06-27T10:14:09.947Z,10.53
2018-06-27T10:16:39.675Z,11.60
2018-06-27T10:19:09.208Z,10.10
2018-06-27T10:21:38.949Z,9.13
2018-06-27T10:24:08.539Z,10.03
2018-06-27T10:26:38.190Z,12.23
2018-06-27T10:29:07.741Z,10.53
2018-06-27T10:31:37.467Z,10.13
2018-06-27T10:34:07.024Z,10.47
2018-06-27T10:36:36.664Z,11.13
2018-06-27T10:39:09.913Z,11.43
2018-06-27T10:41:39.972Z,11.17
2018-06-27T10:44:09.514Z,10.87
2018-06-27T10:46:39.027Z,10.17
2018-06-27T10:49:08.596Z,10.70
2018-06-27T10:51:38.158Z,11.30
2018-06-27T10:54:07.642Z,11.63
2018-06-27T10:56:37.292Z,14.07
2018-06-27T10:59:07.706Z,14.03
2018-06-27T11:01:41.935Z,12.30
2018-06-27T11:04:11.510Z,12.27
2018-06-27T11:06:50.602Z,12.30
2018-06-27T11:09:20.750Z,12.77
2018-06-27T11:11:50.299Z,12.80
2018-06-27T11:14:19.821Z,12.60
2018-06-27T11:16:49.440Z,13.20
2018-06-27T11:19:19.016Z,13.60
2018-06-27T11:21:48.546Z,13.20
2018-06-27T11:24:18.283Z,15.50
2018-06-27T11:26:47.975Z,13.70
2018-06-27T11:29:17.472Z,15.33
2018-06-27T11:31:47.090Z,13.63
2018-06-27T11:34:16.581Z,13.77
2018-06-27T11:36:46.133Z,15.50
2018-06-27T11:39:15.655Z,14.50
2018-06-27T11:41:45.390Z,14.07
2018-06-27T11:44:14.997Z,14.03
2018-06-27T11:46:44.588Z,15.87
2018-06-27T11:49:14.022Z,19.00
2018-06-27T11:51:43.632Z,16.07
2018-06-27T11:54:13.288Z,16.20
2018-06-27T11:56:42.815Z,15.33
2018-06-27T11:59:12.412Z,16.43
2018-06-27T12:01:41.980Z,17.47
2018-06-27T12:04:11.588Z,16.90
2018-06-27T12:06:41.063Z,17.53
2018-06-27T12:09:11.419Z,17.90
2018-06-27T12:11:41.028Z,17.97
2018-06-27T12:14:11.380Z,17.80
2018-06-27T12:16:41.390Z,17.40
2018-06-27T12:19:11.018Z,19.77
2018-06-27T12:21:40.566Z,17.17
2018-06-27T12:24:09.766Z,19.67
2018-06-27T12:26:39.456Z,17.80
2018-06-27T12:29:09.203Z,19.13
2018-06-27T12:31:38.737Z,19.10
2018-06-27T12:34:08.795Z,18.93
2018-06-27T12:36:38.371Z,19.20
2018-06-27T12:39:12.288Z,20.97
2018-06-27T12:41:42.225Z,20.73
2018-06-27T12:44:11.696Z,24.17
2018-06-27T12:46:41.226Z,20.80
2018-06-27T12:49:10.762Z,21.07
2018-06-27T12:51:40.368Z,22.17
2018-06-27T12:54:10.104Z,19.50
2018-06-27T12:56:39.762Z,21.50
2018-06-27T12:59:09.340Z,20.40
2018-06-27T13:01:39.426Z,21.70
2018-06-27T13:04:09.123Z,23.50
2018-06-27T13:06:38.741Z,22.80
2018-06-27T13:09:11.716Z,22.20
2018-06-27T13:11:42.082Z,22.50
2018-06-27T13:14:11.591Z,23.73
2018-06-27T13:16:46.304Z,22.50
2018-06-27T13:19:16.070Z,24.10
2018-06-27T13:21:47.007Z,23.53
2018-06-27T13:24:16.808Z,24.43
2018-06-27T13:26:46.520Z,22.50
2018-06-27T13:29:16.256Z,25.13
2018-06-27T13:31:45.862Z,23.13
2018-06-27T13:34:15.487Z,21.23
2018-06-27T13:36:45.053Z,23.07
2018-06-27T13:39:14.633Z,22.90
2018-06-27T13:41:50.776Z,22.27
2018-06-27T13:44:20.630Z,24.30
2018-06-27T13:46:50.573Z,22.00
2018-06-27T13:49:20.172Z,22.60
2018-06-27T13:51:50.584Z,23.70
2018-06-27T13:54:20.600Z,25.00
2018-06-27T13:56:50.186Z,21.30
2018-06-27T13:59:19.836Z,21.00
2018-06-27T14:01:49.374Z,21.83
2018-06-27T14:04:18.928Z,24.77
2018-06-27T14:06:48.916Z,21.90
2018-06-27T14:09:19.770Z,20.63
2018-06-27T14:11:49.387Z,23.97
2018-06-27T14:14:20.228Z,22.13
2018-06-27T14:16:50.234Z,20.90
2018-06-27T14:19:19.776Z,19.60
2018-06-27T14:21:49.415Z,21.30
2018-06-27T14:24:23.154Z,20.60
2018-06-27T14:26:53.614Z,22.10
2018-06-27T14:29:23.203Z,19.90
2018-06-27T14:31:54.444Z,21.50
2018-06-27T14:34:24.215Z,19.70
2018-06-27T14:36:53.796Z,21.53
2018-06-27T14:39:23.361Z,20.57
2018-06-27T14:41:53.215Z,20.47
2018-06-27T14:44:23.080Z,21.47
2018-06-27T14:46:53.661Z,20.90
2018-06-27T14:49:23.471Z,23.00
2018-06-27T14:52:00.901Z,20.30
2018-06-27T14:54:38.570Z,22.70
2018-06-27T14:57:08.597Z,18.80
2018-06-27T14:59:38.577Z,17.77
2018-06-27T15:02:08.462Z,18.50
2018-06-27T15:04:39.103Z,17.30
2018-06-27T15:07:08.683Z,19.07
2018-06-27T15:09:38.344Z,22.10
2018-06-27T15:12:14.507Z,21.13
2018-06-27T15:14:44.356Z,19.00
2018-06-27T15:17:14.091Z,19.90
2018-06-27T15:19:43.689Z,18.90
2018-06-27T15:22:13.199Z,19.23
2018-06-27T15:24:42.793Z,18.90
2018-06-27T15:27:12.383Z,19.50
2018-06-27T15:29:42.605Z,19.53
2018-06-27T15:32:12.489Z,19.63
2018-06-27T15:34:42.317Z,18.80
2018-06-27T15:37:12.076Z,20.70
2018-06-27T15:39:41.921Z,22.43
2018-06-27T15:42:11.705Z,17.53
2018-06-27T15:44:41.348Z,20.30
2018-06-27T15:47:13.248Z,18.30
2018-06-27T15:49:43.608Z,18.03
2018-06-27T15:52:13.647Z,17.67
2018-06-27T15:54:43.615Z,18.97
2018-06-27T15:57:15.095Z,18.13
2018-06-27T15:59:54.661Z,17.80
2018-06-27T16:02:24.326Z,18.17
2018-06-27T16:04:54.114Z,18.20
2018-06-27T16:07:23.811Z,16.50
2018-06-27T16:09:53.853Z,17.17
2018-06-27T16:12:23.448Z,14.63
2018-06-27T16:14:53.099Z,16.43
2018-06-27T16:17:23.517Z,15.90
2018-06-27T16:19:52.804Z,16.27
2018-06-27T16:22:22.481Z,17.50
2018-06-27T16:24:52.287Z,15.37
2018-06-27T16:27:21.788Z,15.10
2018-06-27T16:29:51.302Z,17.67
2018-06-27T16:32:22.563Z,18.57
2018-06-27T16:34:52.130Z,17.23
2018-06-27T16:37:21.469Z,17.27
2018-06-27T16:39:51.070Z,16.97
2018-06-27T16:42:20.810Z,18.27
2018-06-27T16:44:50.386Z,15.90
2018-06-27T16:47:19.968Z,16.97
2018-06-27T16:49:49.533Z,14.77
2018-06-27T16:52:19.755Z,16.70
2018-06-27T16:54:51.075Z,16.63
2018-06-27T16:57:20.813Z,14.50
2018-06-27T16:59:52.141Z,15.60
2018-06-27T17:02:23.868Z,15.00
2018-06-27T17:04:54.456Z,18.27
2018-06-27T17:07:24.007Z,17.70
2018-06-27T17:09:54.635Z,15.90
2018-06-27T17:12:24.531Z,18.47
2018-06-27T17:14:54.027Z,16.57
2018-06-27T17:17:23.574Z,15.70
2018-06-27T17:19:53.234Z,16.17
2018-06-27T17:22:22.838Z,15.60
2018-06-27T17:24:52.823Z,16.87
2018-06-27T17:27:23.093Z,15.90
2018-06-27T17:29:52.975Z,17.80
2018-06-27T17:32:23.241Z,16.33
2018-06-27T17:34:54.753Z,15.53
2018-06-27T17:37:25.537Z,16.17
2018-06-27T17:39:55.907Z,15.47
2018-06-27T17:42:25.753Z,15.17
2018-06-27T17:44:55.011Z,14.00
2018-06-27T17:47:24.595Z,14.00
2018-06-27T17:49:54.230Z,14.97
2018-06-27T17:52:23.890Z,15.07
2018-06-27T17:54:53.286Z,15.03
2018-06-27T17:57:23.544Z,16.40
2018-06-27T17:59:53.381Z,16.90
2018-06-27T18:02:23.716Z,18.77
2018-06-27T18:04:53.476Z,18.23
2018-06-27T18:07:22.722Z,20.37
2018-06-27T18:09:52.531Z,18.20
2018-06-27T18:12:22.152Z,21.77
2018-06-27T18:14:54.813Z,19.00
2018-06-27T18:17:26.623Z,17.70
2018-06-27T18:19:58.184Z,16.80
2018-06-27T18:22:31.924Z,18.40
2018-06-27T18:25:04.021Z,18.00
2018-06-27T18:27:36.708Z,22.63
2018-06-27T18:30:09.241Z,17.80
2018-06-27T18:32:40.288Z,18.73
2018-06-27T18:35:13.084Z,17.80
2018-06-27T18:37:45.775Z,18.00
2018-06-27T18:40:17.978Z,17.77
2018-06-27T18:42:49.604Z,17.77
2018-06-27T18:45:22.462Z,19.70
2018-06-27T18:47:54.557Z,20.90
2018-06-27T18:50:24.046Z,19.80
2018-06-27T18:52:53.548Z,19.70
2018-06-27T18:55:23.169Z,16.63
2018-06-27T18:57:52.713Z,19.57
2018-06-27T19:00:22.222Z,20.37
2018-06-27T19:02:51.774Z,21.77
2018-06-27T19:05:21.436Z,21.27
2018-06-27T19:07:51.017Z,20.13
2018-06-27T19:10:20.537Z,20.00
2018-06-27T19:12:50.095Z,21.13
2018-06-27T19:15:20.047Z,22.97
2018-06-27T19:17:49.292Z,21.57
2018-06-27T19:20:18.835Z,22.20
2018-06-27T19:22:48.416Z,20.70
2018-06-27T19:25:18.211Z,20.03
2018-06-27T19:27:48.011Z,22.57
2018-06-27T19:30:17.755Z,20.23
2018-06-27T19:32:47.509Z,19.03
2018-06-27T19:35:17.479Z,18.37
2018-06-27T19:37:47.098Z,18.30
2018-06-27T19:40:16.753Z,19.43
2018-06-27T19:42:46.469Z,20.77
2018-06-27T19:45:16.040Z,18.50
2018-06-27T19:47:45.602Z,19.57
2018-06-27T19:50:15.294Z,18.63
2018-06-27T19:52:44.945Z,17.13
2018-06-27T19:55:14.690Z,17.70
2018-06-27T19:57:44.314Z,17.17
2018-06-27T20:00:14.253Z,19.50
2018-06-27T20:02:43.890Z,18.37
2018-06-27T20:05:13.582Z,17.90
2018-06-27T20:07:43.381Z,16.30
2018-06-27T20:10:13.153Z,17.50
2018-06-27T20:12:42.994Z,17.60
2018-06-27T20:15:13.500Z,16.50
2018-06-27T20:17:43.969Z,17.10
2018-06-27T20:20:13.643Z,18.07
2018-06-27T20:22:43.428Z,16.13
2018-06-27T20:25:13.206Z,19.50
2018-06-27T20:27:42.941Z,16.23
2018-06-27T20:30:12.653Z,17.47
2018-06-27T20:32:42.389Z,16.10
2018-06-27T20:35:11.971Z,18.40
2018-06-27T20:37:41.844Z,16.10
2018-06-27T20:40:11.661Z,17.17
2018-06-27T20:42:41.626Z,17.07
2018-06-27T20:45:11.420Z,16.60
2018-06-27T20:47:41.408Z,15.67
2018-06-27T20:50:11.239Z,18.13
2018-06-27T20:52:41.008Z,18.80
2018-06-27T20:55:10.695Z,23.50
2018-06-27T20:57:40.433Z,18.20
2018-06-27T21:00:10.270Z,16.50
2018-06-27T21:02:40.071Z,23.05
2018-06-27T21:05:09.748Z,17.60
2018-06-27T21:07:39.436Z,16.00
2018-06-27T21:10:09.254Z,16.60
2018-06-27T21:12:38.834Z,16.70
2018-06-27T21:15:08.462Z,16.60
2018-06-27T21:17:38.180Z,18.93
2018-06-27T21:20:08.445Z,16.80
2018-06-27T21:22:41.962Z,17.40
2018-06-27T21:25:11.795Z,17.70
2018-06-27T21:27:41.408Z,19.43
2018-06-27T21:30:11.069Z,18.07
2018-06-27T21:32:41.309Z,17.03
2018-06-27T21:35:10.958Z,16.90
2018-06-27T21:37:40.932Z,17.10
2018-06-27T21:40:10.181Z,16.53
2018-06-27T21:42:39.803Z,18.07
2018-06-27T21:45:09.426Z,20.13
2018-06-27T21:47:39.009Z,21.10
2018-06-27T21:50:08.753Z,22.90
2018-06-27T21:52:38.435Z,22.00
2018-06-27T21:55:08.084Z,18.43
2018-06-27T21:57:37.881Z,21.47
2018-06-27T22:00:09.984Z,22.17
2018-06-27T22:02:39.818Z,19.60
2018-06-27T22:05:09.536Z,20.83
2018-06-27T22:07:39.366Z,21.53
2018-06-27T22:10:09.112Z,24.33
2018-06-27T22:12:38.827Z,22.43
2018-06-27T22:15:08.368Z,20.97
2018-06-27T22:17:38.509Z,21.07
2018-06-27T22:20:09.272Z,22.77
2018-06-27T22:22:38.945Z,24.00
2018-06-27T22:25:08.842Z,23.47
2018-06-27T22:27:38.670Z,23.80
2018-06-27T22:30:08.560Z,23.47
2018-06-27T22:32:38.250Z,24.37
2018-06-27T22:35:07.863Z,24.50
2018-06-27T22:37:37.468Z,26.10
2018-06-27T22:40:07.027Z,28.30
2018-06-27T22:42:36.691Z,25.10
2018-06-27T22:45:06.334Z,25.87
2018-06-27T22:47:35.937Z,23.20
2018-06-27T22:50:05.528Z,22.67
2018-06-27T22:52:35.302Z,21.40
2018-06-27T22:55:05.004Z,24.00
2018-06-27T22:57:34.616Z,24.30
2018-06-27T23:00:04.341Z,26.23
2018-06-27T23:02:34.018Z,23.97
2018-06-27T23:05:03.689Z,23.53
2018-06-27T23:07:33.360Z,25.60
2018-06-27T23:10:03.048Z,22.20
2018-06-27T23:12:32.619Z,19.50
2018-06-27T23:15:02.207Z,18.63
2018-06-27T23:17:31.774Z,18.73
2018-06-27T23:20:01.594Z,23.60
2018-06-27T23:22:47.569Z,24.30
2018-06-27T23:25:17.295Z,21.87
2018-06-27T23:27:47.481Z,23.03
2018-06-27T23:30:17.128Z,21.70
2018-06-27T23:32:46.740Z,24.37
2018-06-27T23:35:16.320Z,20.53
2018-06-27T23:37:45.990Z,19.50
2018-06-27T23:40:15.711Z,16.73
2018-06-27T23:42:45.399Z,15.27
2018-06-27T23:45:14.982Z,17.87
2018-06-27T23:47:44.562Z,17.60
2018-06-27T23:50:14.149Z,20.80
2018-06-27T23:52:43.988Z,19.23
2018-06-27T23:55:13.619Z,20.23
2018-06-27T23:57:43.259Z,19.90
